createdAt,value
2022-09-18T00:01:41.792Z,8.28
2022-09-18T00:04:16.229Z,8.28
2022-09-18T00:06:45.703Z,8.28
2022-09-18T00:09:15.740Z,8.28
2022-09-18T00:11:47.421Z,8.28
2022-09-18T00:14:21.127Z,8.27
2022-09-18T00:16:50.888Z,8.25
2022-09-18T00:19:20.057Z,8.24
2022-09-18T00:21:51.296Z,8.22
2022-09-18T00:24:20.492Z,8.19
2022-09-18T00:26:49.696Z,8.18
2022-09-18T00:29:18.524Z,8.16
2022-09-18T00:31:46.988Z,8.16
2022-09-18T00:34:16.425Z,8.13
2022-09-18T00:36:45.254Z,8.12
2022-09-18T00:39:14.917Z,8.10
2022-09-18T00:41:44.642Z,8.08
2022-09-18T00:44:45.406Z,8.07
2022-09-18T00:47:53.044Z,8.04
2022-09-18T00:50:27.200Z,8.02
2022-09-18T00:53:06.023Z,8.00
2022-09-18T00:55:40.146Z,7.96
2022-09-18T00:58:09.602Z,7.93
2022-09-18T01:00:38.286Z,7.89
2022-09-18T01:03:06.776Z,7.87
2022-09-18T01:05:52.890Z,7.82
2022-09-18T01:08:57.250Z,7.76
2022-09-18T01:12:20.779Z,7.71
2022-09-18T01:15:01.028Z,7.65
2022-09-18T01:21:10.812Z,7.57
2022-09-18T01:24:17.251Z,7.56
2022-09-18T01:27:06.350Z,7.53
2022-09-18T01:29:55.448Z,7.53
2022-09-18T01:32:46.165Z,7.56
2022-09-18T01:41:25.871Z,7.70
2022-09-18T01:44:02.149Z,7.76
2022-09-18T01:46:31.046Z,7.85
2022-09-18T01:49:23.596Z,7.95
2022-09-18T01:52:08.938Z,8.07
2022-09-18T01:54:42.523Z,8.16
2022-09-18T01:57:28.099Z,8.26
2022-09-18T02:00:12.172Z,8.35
2022-09-18T02:03:00.682Z,8.44
2022-09-18T02:05:40.428Z,8.55
2022-09-18T02:08:20.473Z,8.62
2022-09-18T02:10:58.159Z,8.72
2022-09-18T02:13:32.337Z,8.79
2022-09-18T02:16:13.990Z,8.87
2022-09-18T02:18:52.702Z,8.95
2022-09-18T02:21:35.760Z,9.01
2022-09-18T02:24:09.222Z,9.07
2022-09-18T02:26:40.496Z,9.13
2022-09-18T02:29:13.338Z,9.17
2022-09-18T02:31:41.890Z,9.21
2022-09-18T02:34:12.925Z,9.25
2022-09-18T02:37:42.451Z,9.28
2022-09-18T02:40:30.497Z,9.32
2022-09-18T02:43:19.807Z,9.36
2022-09-18T02:46:07.458Z,9.38
2022-09-18T02:49:06.079Z,9.39
2022-09-18T02:52:11.089Z,9.41
2022-09-18T02:55:05.419Z,9.41
2022-09-18T02:57:46.721Z,9.42
2022-09-18T03:00:19.508Z,9.41
2022-09-18T03:03:13.826Z,9.41
2022-09-18T03:05:42.344Z,9.41
2022-09-18T03:08:12.187Z,9.41
2022-09-18T03:10:40.619Z,9.41
2022-09-18T03:13:14.884Z,9.41
2022-09-18T03:15:43.706Z,9.41
2022-09-18T03:18:12.194Z,9.41
2022-09-18T03:20:44.136Z,9.40
2022-09-18T03:23:13.079Z,9.40
2022-09-18T03:25:41.443Z,9.39
2022-09-18T03:28:11.455Z,9.41
2022-09-18T03:30:40.047Z,9.42
2022-09-18T03:33:08.807Z,9.43
2022-09-18T03:35:37.125Z,9.45
2022-09-18T03:38:05.574Z,9.46
2022-09-18T03:40:35.104Z,9.48
2022-09-18T03:43:04.357Z,9.50
2022-09-18T03:45:33.737Z,9.52
2022-09-18T03:48:03.374Z,9.53
2022-09-18T03:50:41.064Z,9.52
2022-09-18T03:53:30.780Z,9.54
2022-09-18T03:56:15.395Z,9.55
2022-09-18T03:59:08.779Z,9.57
2022-09-18T04:01:48.837Z,9.58
2022-09-18T04:04:54.016Z,9.60
2022-09-18T04:07:22.834Z,9.62
2022-09-18T04:09:54.001Z,9.62
2022-09-18T04:12:23.143Z,9.63
2022-09-18T04:14:51.640Z,9.65
2022-09-18T04:17:20.204Z,9.66
2022-09-18T04:19:53.417Z,9.67
2022-09-18T04:22:23.027Z,9.69
2022-09-18T04:24:51.580Z,9.70
2022-09-18T04:27:20.134Z,9.70
2022-09-18T04:29:52.739Z,9.71
2022-09-18T04:32:21.337Z,9.71
2022-09-18T04:34:49.917Z,9.73
2022-09-18T04:37:18.259Z,9.73
2022-09-18T04:39:47.056Z,9.73
2022-09-18T04:42:15.447Z,9.74
2022-09-18T04:44:46.102Z,9.74
2022-09-18T04:47:14.622Z,9.75
2022-09-18T04:49:45.596Z,9.75
2022-09-18T04:52:14.624Z,9.77
2022-09-18T04:54:43.294Z,9.77
2022-09-18T04:57:11.646Z,9.77
2022-09-18T04:59:40.063Z,9.77
2022-09-18T05:02:08.766Z,9.78
2022-09-18T05:04:37.364Z,9.79
2022-09-18T05:07:07.125Z,9.78
2022-09-18T05:09:36.323Z,9.78
2022-09-18T05:12:05.797Z,9.77
2022-09-18T05:14:34.246Z,9.77
2022-09-18T05:17:02.914Z,9.75
2022-09-18T05:19:31.261Z,9.73
2022-09-18T05:22:00.048Z,9.71
2022-09-18T05:24:28.383Z,9.69
2022-09-18T05:26:56.725Z,9.67
2022-09-18T05:29:25.330Z,9.66
2022-09-18T05:31:53.777Z,9.64
2022-09-18T05:34:22.379Z,9.62
2022-09-18T05:36:50.697Z,9.60
2022-09-18T05:39:18.985Z,9.58
2022-09-18T05:41:50.777Z,9.58
2022-09-18T05:44:20.245Z,9.57
2022-09-18T05:46:48.897Z,9.57
2022-09-18T05:49:17.370Z,9.57
2022-09-18T05:51:46.463Z,9.58
2022-09-18T05:54:15.768Z,9.58
2022-09-18T05:56:44.262Z,9.58
2022-09-18T05:59:13.724Z,9.58
2022-09-18T06:01:46.849Z,9.59
2022-09-18T06:04:15.694Z,9.60
2022-09-18T06:06:44.021Z,9.62
2022-09-18T06:09:12.596Z,9.65
2022-09-18T06:11:41.001Z,9.70
2022-09-18T06:14:09.255Z,9.76
2022-09-18T06:16:42.163Z,9.82
2022-09-18T06:19:10.950Z,9.87
2022-09-18T06:21:40.789Z,9.91
2022-09-18T06:24:09.663Z,9.93
2022-09-18T06:26:38.030Z,9.94
2022-09-18T06:29:06.468Z,9.93
2022-09-18T06:31:34.819Z,9.92
2022-09-18T06:34:03.204Z,9.90
2022-09-18T06:36:31.663Z,9.89
2022-09-18T06:39:00.148Z,9.90
2022-09-18T06:41:28.550Z,9.92
2022-09-18T06:43:56.858Z,9.95
2022-09-18T06:46:25.341Z,9.99
2022-09-18T06:48:53.777Z,10.03
2022-09-18T06:51:22.125Z,10.07
2022-09-18T06:53:50.468Z,10.12
2022-09-18T06:56:18.875Z,10.17
2022-09-18T06:58:47.203Z,10.21
2022-09-18T07:01:16.498Z,10.23
2022-09-18T07:03:50.294Z,10.28
2022-09-18T07:06:18.773Z,10.34
2022-09-18T07:08:49.059Z,10.39
2022-09-18T07:11:17.569Z,10.42
2022-09-18T07:13:47.299Z,10.43
2022-09-18T07:16:17.424Z,10.45
2022-09-18T07:18:48.569Z,10.46
2022-09-18T07:21:16.964Z,10.45
2022-09-18T07:23:45.221Z,10.43
2022-09-18T07:26:14.282Z,10.39
2022-09-18T07:28:42.508Z,10.35
2022-09-18T07:31:12.772Z,10.32
2022-09-18T07:33:41.093Z,10.31
2022-09-18T07:36:09.439Z,10.31
2022-09-18T07:38:37.753Z,10.32
2022-09-18T07:41:06.041Z,10.30
2022-09-18T07:43:34.401Z,10.30
2022-09-18T07:46:03.128Z,10.33
2022-09-18T07:48:31.447Z,10.39
2022-09-18T07:50:59.805Z,10.43
2022-09-18T07:53:29.507Z,10.47
2022-09-18T07:55:57.856Z,10.54
2022-09-18T07:58:26.971Z,10.67
2022-09-18T08:00:55.485Z,10.83
2022-09-18T08:03:25.377Z,11.01
2022-09-18T08:05:54.490Z,11.24
2022-09-18T08:08:23.371Z,11.49
2022-09-18T08:10:51.863Z,11.69
2022-09-18T08:13:20.319Z,11.81
2022-09-18T08:15:48.812Z,11.93
2022-09-18T08:18:17.595Z,12.03
2022-09-18T08:20:46.063Z,12.07
2022-09-18T08:23:14.452Z,12.12
2022-09-18T08:25:42.843Z,12.18
2022-09-18T08:28:11.218Z,12.21
2022-09-18T08:30:39.485Z,12.25
2022-09-18T08:33:09.167Z,12.28
2022-09-18T08:35:37.785Z,12.25
2022-09-18T08:38:07.724Z,12.25
2022-09-18T08:40:59.827Z,12.28
2022-09-18T08:43:28.057Z,12.32
2022-09-18T08:46:38.372Z,12.30
2022-09-18T08:49:30.962Z,12.24
2022-09-18T08:52:24.567Z,12.19
2022-09-18T08:55:10.116Z,12.14
2022-09-18T09:00:53.589Z,11.89
2022-09-18T09:03:59.052Z,11.66
2022-09-18T09:07:10.854Z,11.45
2022-09-18T09:10:24.400Z,11.21
2022-09-18T09:13:06.016Z,10.98
2022-09-18T09:16:10.826Z,10.77
2022-09-18T09:18:57.816Z,10.54
2022-09-18T09:21:57.385Z,10.41
2022-09-18T09:25:06.305Z,10.31
2022-09-18T09:27:53.145Z,10.21
2022-09-18T09:30:21.963Z,10.14
2022-09-18T09:33:00.645Z,10.10
2022-09-18T09:35:56.111Z,10.07
2022-09-18T09:38:48.393Z,10.07
2022-09-18T09:47:49.497Z,10.10
2022-09-18T09:51:08.645Z,10.14
2022-09-18T09:53:37.187Z,10.17
2022-09-18T09:59:35.616Z,10.26
2022-09-18T10:02:37.604Z,10.31
2022-09-18T10:05:43.998Z,10.32
2022-09-18T10:08:51.937Z,10.28
2022-09-18T10:11:20.609Z,10.27
2022-09-18T10:13:56.568Z,10.29
2022-09-18T10:16:40.896Z,10.33
2022-09-18T10:19:19.242Z,10.35
2022-09-18T10:21:53.032Z,10.32
2022-09-18T10:24:53.451Z,10.23
2022-09-18T10:27:21.823Z,10.13
2022-09-18T10:29:53.689Z,10.07
2022-09-18T10:32:50.518Z,10.03
2022-09-18T10:35:31.147Z,9.98
2022-09-18T10:37:59.550Z,9.98
2022-09-18T10:40:29.339Z,10.01
2022-09-18T10:43:00.311Z,10.04
2022-09-18T10:45:38.155Z,10.05
2022-09-18T10:48:22.195Z,10.05
2022-09-18T10:51:00.170Z,10.09
2022-09-18T10:53:33.030Z,10.17
2022-09-18T10:56:21.614Z,10.24
2022-09-18T10:58:49.942Z,10.34
2022-09-18T11:01:19.827Z,10.42
2022-09-18T11:04:06.619Z,10.53
2022-09-18T11:06:37.669Z,10.62
2022-09-18T11:09:11.104Z,10.72
2022-09-18T11:11:50.212Z,10.87
2022-09-18T11:14:41.178Z,11.00
2022-09-18T11:17:24.495Z,11.04
2022-09-18T11:19:56.743Z,11.06
2022-09-18T11:22:34.127Z,11.06
2022-09-18T11:25:19.007Z,11.03
2022-09-18T11:27:53.889Z,10.99
2022-09-18T11:30:28.335Z,10.93
2022-09-18T11:33:22.498Z,10.87
2022-09-18T11:35:59.877Z,10.84
2022-09-18T11:38:29.474Z,10.83
2022-09-18T11:41:01.791Z,10.82
2022-09-18T11:43:36.844Z,10.82
2022-09-18T11:46:40.271Z,10.83
2022-09-18T11:49:19.439Z,10.82
2022-09-18T11:52:09.771Z,10.81
2022-09-18T11:55:04.127Z,10.81
2022-09-18T11:57:48.366Z,10.79
2022-09-18T12:00:20.911Z,10.82
2022-09-18T12:03:26.312Z,10.87
2022-09-18T12:06:08.613Z,10.95
2022-09-18T12:09:08.489Z,11.01
2022-09-18T12:11:53.168Z,11.10
2022-09-18T12:14:46.281Z,11.22
2022-09-18T12:17:54.718Z,11.38
2022-09-18T12:20:28.871Z,11.53
2022-09-18T12:23:00.045Z,11.66
2022-09-18T12:26:06.146Z,11.72
2022-09-18T12:28:59.470Z,11.80
2022-09-18T12:32:04.861Z,11.89
2022-09-18T12:34:47.203Z,12.01
2022-09-18T12:37:52.576Z,12.19
2022-09-18T12:41:00.792Z,12.41
2022-09-18T12:44:04.482Z,12.63
2022-09-18T12:46:48.065Z,12.84
2022-09-18T12:49:56.066Z,13.06
2022-09-18T12:53:10.424Z,13.30
2022-09-18T12:56:14.589Z,13.47
2022-09-18T12:59:03.026Z,13.77
2022-09-18T13:02:01.705Z,14.14
2022-09-18T13:04:44.739Z,14.24
2022-09-18T13:07:35.016Z,14.39
2022-09-18T13:10:31.165Z,14.54
2022-09-18T13:13:45.865Z,15.01
2022-09-18T13:16:39.220Z,15.44
2022-09-18T13:19:26.484Z,15.37
2022-09-18T13:21:57.580Z,15.13
2022-09-18T13:24:35.710Z,15.01
2022-09-18T13:27:16.318Z,15.02
2022-09-18T13:29:54.072Z,15.10
2022-09-18T13:32:37.137Z,15.29
2022-09-18T13:35:12.323Z,15.51
2022-09-18T13:37:42.450Z,15.72
2022-09-18T13:40:33.871Z,15.88
2022-09-18T13:43:28.804Z,16.08
2022-09-18T13:46:04.687Z,16.25
2022-09-18T13:48:46.279Z,16.60
2022-09-18T13:51:28.529Z,17.27
2022-09-18T13:54:13.431Z,17.84
2022-09-18T13:57:05.023Z,18.26
2022-09-18T13:59:55.896Z,18.59
2022-09-18T14:02:38.779Z,18.35
2022-09-18T14:05:30.386Z,18.11
2022-09-18T14:08:18.772Z,18.42
2022-09-18T14:11:04.994Z,18.78
2022-09-18T14:13:42.630Z,19.13
2022-09-18T14:16:24.191Z,19.51
2022-09-18T14:18:56.809Z,19.83
2022-09-18T14:21:31.930Z,19.99
2022-09-18T14:24:05.533Z,20.28
2022-09-18T14:26:36.049Z,20.53
2022-09-18T14:29:19.642Z,20.74
2022-09-18T14:31:52.117Z,21.02
2022-09-18T14:34:44.217Z,21.36
2022-09-18T14:37:44.897Z,21.55
2022-09-18T14:40:24.822Z,21.76
2022-09-18T14:42:54.228Z,21.80
2022-09-18T14:45:32.144Z,21.26
2022-09-18T14:48:29.188Z,20.55
2022-09-18T14:51:07.618Z,19.90
2022-09-18T14:53:45.741Z,19.42
2022-09-18T14:56:25.982Z,19.53
2022-09-18T14:58:56.818Z,20.17
2022-09-18T15:01:32.161Z,20.95
2022-09-18T15:04:06.399Z,21.64
2022-09-18T15:06:53.501Z,22.22
2022-09-18T15:09:30.717Z,22.75
2022-09-18T15:12:03.002Z,23.25
2022-09-18T15:14:46.892Z,23.60
2022-09-18T15:17:27.787Z,23.82
2022-09-18T15:20:17.440Z,24.00
2022-09-18T15:22:46.767Z,24.13
2022-09-18T15:25:20.278Z,24.21
2022-09-18T15:27:50.241Z,24.33
2022-09-18T15:30:22.977Z,23.74
2022-09-18T15:33:06.154Z,22.50
2022-09-18T15:35:38.203Z,22.51
2022-09-18T15:38:16.425Z,23.02
2022-09-18T15:40:47.336Z,23.59
2022-09-18T15:43:31.206Z,24.06
2022-09-18T15:46:11.776Z,24.35
2022-09-18T15:48:40.060Z,24.53
2022-09-18T15:51:24.355Z,24.76
2022-09-18T15:54:12.373Z,25.07
2022-09-18T15:56:50.822Z,25.24
2022-09-18T15:59:27.495Z,25.19
2022-09-18T16:01:56.470Z,24.95
2022-09-18T16:04:34.454Z,23.87
2022-09-18T16:07:24.364Z,23.67
2022-09-18T16:09:53.980Z,23.49
2022-09-18T16:12:30.869Z,22.40
2022-09-18T16:15:11.361Z,21.65
2022-09-18T16:17:45.685Z,21.32
2022-09-18T16:20:34.129Z,20.32
2022-09-18T16:23:21.513Z,19.47
2022-09-18T16:26:09.300Z,18.62
2022-09-18T16:29:02.628Z,17.84
2022-09-18T16:31:41.202Z,17.11
2022-09-18T16:34:28.940Z,16.55
2022-09-18T16:36:57.426Z,16.06
2022-09-18T16:39:26.973Z,15.67
2022-09-18T16:41:55.389Z,15.28
2022-09-18T16:44:25.003Z,14.96
2022-09-18T16:47:09.707Z,14.66
2022-09-18T16:49:45.848Z,14.37
2022-09-18T16:52:14.764Z,14.13
2022-09-18T16:54:43.276Z,13.91
2022-09-18T16:57:20.430Z,13.71
2022-09-18T16:59:50.355Z,13.52
2022-09-18T17:02:25.470Z,13.36
2022-09-18T17:04:54.720Z,13.19
2022-09-18T17:07:23.071Z,13.05
2022-09-18T17:09:52.021Z,12.92
2022-09-18T17:12:20.323Z,12.81
2022-09-18T17:14:48.971Z,12.70
2022-09-18T17:17:17.640Z,12.60
2022-09-18T17:19:46.010Z,12.49
2022-09-18T17:22:14.499Z,12.39
2022-09-18T17:24:42.998Z,12.29
2022-09-18T17:27:11.718Z,12.21
2022-09-18T17:29:40.052Z,12.13
2022-09-18T17:32:08.479Z,12.04
2022-09-18T17:34:36.763Z,11.96
2022-09-18T17:37:05.176Z,11.89
2022-09-18T17:39:33.864Z,11.83
2022-09-18T17:42:02.711Z,11.76
2022-09-18T17:44:34.474Z,11.70
2022-09-18T17:47:03.928Z,11.65
2022-09-18T17:49:33.052Z,11.57
2022-09-18T17:52:01.826Z,11.50
2022-09-18T17:54:35.048Z,11.42
2022-09-18T17:57:11.468Z,11.37
2022-09-18T17:59:43.037Z,11.32
2022-09-18T18:02:13.279Z,11.28
2022-09-18T18:04:41.655Z,11.26
2022-09-18T18:07:10.151Z,11.23
2022-09-18T18:09:38.518Z,11.21
2022-09-18T18:12:07.014Z,11.17
2022-09-18T18:14:35.298Z,11.14
2022-09-18T18:17:04.334Z,11.10
2022-09-18T18:19:35.362Z,11.08
2022-09-18T18:22:03.711Z,11.06
2022-09-18T18:24:32.061Z,11.04
2022-09-18T18:27:00.462Z,11.02
2022-09-18T18:29:28.836Z,11.00
2022-09-18T18:31:58.430Z,10.97
2022-09-18T18:34:27.004Z,10.93
2022-09-18T18:36:55.389Z,10.89
2022-09-18T18:39:23.676Z,10.82
2022-09-18T18:41:52.039Z,10.73
2022-09-18T18:44:20.333Z,10.64
2022-09-18T18:46:50.140Z,10.53
2022-09-18T18:49:19.110Z,10.46
2022-09-18T18:51:48.773Z,10.39
2022-09-18T18:54:21.383Z,10.33
2022-09-18T18:56:50.148Z,10.28
2022-09-18T18:59:22.155Z,10.22
2022-09-18T19:01:50.672Z,10.19
2022-09-18T19:04:19.280Z,10.16
2022-09-18T19:06:49.058Z,10.13
2022-09-18T19:09:29.529Z,10.10
2022-09-18T19:11:58.275Z,10.07
2022-09-18T19:14:34.256Z,10.04
2022-09-18T19:17:02.623Z,10.01
2022-09-18T19:19:31.201Z,9.96
2022-09-18T19:21:59.808Z,9.91
2022-09-18T19:24:30.016Z,9.84
2022-09-18T19:26:59.039Z,9.77
2022-09-18T19:29:28.347Z,9.71
2022-09-18T19:31:57.699Z,9.65
2022-09-18T19:34:27.035Z,9.59
2022-09-18T19:36:56.198Z,9.53
2022-09-18T19:39:24.683Z,9.47
2022-09-18T19:42:15.567Z,9.42
2022-09-18T19:44:57.655Z,9.36
2022-09-18T19:48:04.999Z,9.29
2022-09-18T19:50:37.914Z,9.22
2022-09-18T19:53:06.337Z,9.17
2022-09-18T19:55:34.643Z,9.12
2022-09-18T19:58:03.033Z,9.08
2022-09-18T20:00:31.483Z,9.02
2022-09-18T20:03:00.308Z,8.97
2022-09-18T20:05:28.585Z,8.92
2022-09-18T20:07:56.843Z,8.89
2022-09-18T20:10:25.107Z,8.86
2022-09-18T20:12:54.049Z,8.82
2022-09-18T20:15:22.533Z,8.80
2022-09-18T20:17:50.848Z,8.78
2022-09-18T20:20:19.245Z,8.77
2022-09-18T20:22:47.668Z,8.75
2022-09-18T20:25:16.515Z,8.73
2022-09-18T20:27:44.843Z,8.73
2022-09-18T20:30:13.932Z,8.72
2022-09-18T20:32:42.261Z,8.72
2022-09-18T20:35:10.597Z,8.72
2022-09-18T20:37:39.040Z,8.72
2022-09-18T20:40:14.225Z,8.72
2022-09-18T20:42:42.713Z,8.74
2022-09-18T20:45:11.088Z,8.74
2022-09-18T20:47:39.463Z,8.76
2022-09-18T20:50:11.713Z,8.75
2022-09-18T20:52:43.613Z,8.76
2022-09-18T20:55:24.004Z,8.75
2022-09-18T20:57:52.257Z,8.74
2022-09-18T21:00:20.783Z,8.73
2022-09-18T21:02:56.451Z,8.72
2022-09-18T21:05:26.242Z,8.71
2022-09-18T21:07:57.462Z,8.70
2022-09-18T21:10:25.842Z,8.68
2022-09-18T21:12:54.080Z,8.68
2022-09-18T21:15:22.567Z,8.67
2022-09-18T21:17:52.288Z,8.67
2022-09-18T21:20:20.940Z,8.66
2022-09-18T21:23:08.280Z,8.66
2022-09-18T21:25:36.757Z,8.66
2022-09-18T21:28:06.039Z,8.65
2022-09-18T21:30:34.569Z,8.66
2022-09-18T21:33:02.868Z,8.65
2022-09-18T21:35:31.203Z,8.63
2022-09-18T21:37:59.505Z,8.64
2022-09-18T21:40:28.415Z,8.63
2022-09-18T21:42:56.733Z,8.62
2022-09-18T21:45:25.104Z,8.63
2022-09-18T21:47:53.678Z,8.62
2022-09-18T21:50:22.786Z,8.62
2022-09-18T21:52:51.051Z,8.62
2022-09-18T21:55:20.669Z,8.62
2022-09-18T21:57:49.006Z,8.61
2022-09-18T22:00:17.410Z,8.59
2022-09-18T22:02:46.451Z,8.57
2022-09-18T22:05:16.117Z,8.54
2022-09-18T22:07:44.485Z,8.52
2022-09-18T22:10:14.694Z,8.50
2022-09-18T22:12:42.994Z,8.47
2022-09-18T22:15:11.253Z,8.43
2022-09-18T22:17:39.664Z,8.41
2022-09-18T22:20:08.748Z,8.38
2022-09-18T22:22:37.047Z,8.36
2022-09-18T22:25:05.936Z,8.33
2022-09-18T22:27:34.407Z,8.30
2022-09-18T22:30:02.677Z,8.27
2022-09-18T22:32:31.460Z,8.25
2022-09-18T22:34:59.745Z,8.23
2022-09-18T22:37:28.960Z,8.21
2022-09-18T22:39:57.342Z,8.19
2022-09-18T22:42:25.689Z,8.17
2022-09-18T22:44:54.077Z,8.16
2022-09-18T22:47:23.648Z,8.15
2022-09-18T22:49:52.051Z,8.14
2022-09-18T22:52:20.403Z,8.13
2022-09-18T22:54:48.709Z,8.12
2022-09-18T22:57:17.013Z,8.10
2022-09-18T22:59:45.303Z,8.08
2022-09-18T23:02:13.621Z,8.06
2022-09-18T23:04:42.039Z,8.05
2022-09-18T23:07:10.429Z,8.04
2022-09-18T23:09:40.261Z,8.02
2022-09-18T23:12:08.612Z,8.01
2022-09-18T23:14:37.058Z,8.00
2022-09-18T23:17:05.322Z,8.00
2022-09-18T23:19:34.983Z,7.99
2022-09-18T23:22:03.828Z,7.99
2022-09-18T23:24:32.662Z,7.99
2022-09-18T23:27:00.984Z,7.99
2022-09-18T23:29:31.891Z,8.00
2022-09-18T23:32:00.562Z,8.01
2022-09-18T23:34:31.814Z,8.02
2022-09-18T23:37:00.845Z,8.02
2022-09-18T23:39:34.442Z,8.01
2022-09-18T23:42:05.731Z,8.00
2022-09-18T23:44:34.862Z,8.00
2022-09-18T23:47:04.226Z,7.99
2022-09-18T23:49:33.487Z,7.99
2022-09-18T23:52:02.629Z,7.99
2022-09-18T23:54:32.114Z,7.99
2022-09-18T23:57:00.535Z,7.99
2022-09-18T23:59:28.950Z,8.01
